Could not load TAF data: FEEDPACKAGE_TAF: could not Find TAF for station: KTPF
سماء صافية دون سحب
سماء صافية دون سحب
سماء صافية دون سحب
سماء صافية دون سحب
سماء صافية دون سحب
صاف ولكن ضبابي
صاف ولكن ضبابي
(°C)
25°
25°
24°
24°
23°
23°
23°
23°
22°
22°
22°
22°
22°
22°
(°C)
26°
25°
25°
24°
24°
24°
24°
غرب شمال غربي
غرب شمال غربي
غرب شمال غربي
غرب شمال غربي
شمال غربي
شمال غربي
شمال ,شمال غربي
(km/h)
9-19
8-18
7-16
5-14
4-12
3-10
3-9
(ميليمتر)
0
0
0
0
0
0
0
(%)
0
0
0
0
0
0
0

مستوى ارتفاع الشمس

/ -6.4°
sun-icon
UV 9
06:58
19:58
القمر المحدب (131°)
16:27
04:49

متر لتامبا (KTPF)

الوقت الشروط درجة الحرارة/
نقطة الندى
رياح مجال رؤية حالة الطقس غيوم الضغط تغيير خام
MVFR 25°C / 17°C 310º 4kt 8000m Haze Clear - KTPF 200015Z AUTO 31004KT 5SM HZ CLR 25/17 A3005 RMK AO2
VFR 26°C / 16°C 300º 5kt >10km - Clear - KTPF 192355Z AUTO 30005KT 7SM CLR 26/16 A3005 RMK AO2
VFR 26°C / 16°C 300º 6kt >10km - Clear - KTPF 192335Z AUTO 30006KT 7SM CLR 26/16 A3004 RMK AO2
VFR 27°C / 16°C 310º 6kt >10km Light Rain 1.00mm precipitation Clear - KTPF 192315Z AUTO 31006KT 7SM -RA CLR 27/16 A3004 RMK AO2
VFR 27°C / 16°C 300º 7kt >10km Rain 3.00mm precipitation Clear - KTPF 192255Z AUTO 30007KT 7SM RA CLR 27/16 A3004 RMK AO2
VFR 28°C / 16°C 290º 8kt >10km Rain 3.00mm precipitation Clear - KTPF 192235Z AUTO 29008KT 10SM RA CLR 28/16 A3004 RMK AO2
VFR 28°C / 16°C 300º 7kt Gust 15kt >10km Rain 3.00mm precipitation Clear - KTPF 192215Z AUTO 30007G15KT 7SM RA CLR 28/16 A3004 RMK AO2
VFR 28°C / 16°C 290º 11kt Gust 17kt >10km Rain 3.00mm precipitation Clear - KTPF 192155Z AUTO 29011G17KT 7SM RA CLR 28/16 A3004 RMK AO2
VFR 29°C / 16°C 290º 8kt Gust 14kt >10km Rain 3.00mm precipitation Clear - KTPF 192135Z AUTO 29008G14KT 7SM RA CLR 29/16 A3004 RMK AO2
VFR 30°C / 16°C 290º 9kt >10km Rain 3.00mm precipitation Clear - KTPF 192115Z AUTO 29009KT 7SM RA CLR 30/16 A3003 RMK AO2
VFR 30°C / 16°C 290º variable 255º to 325º 7kt >10km Rain 3.00mm precipitation Clear - KTPF 192055Z AUTO 29007KT 255V325 7SM RA CLR 30/16 A3003 RMK AO2
VFR 31°C / 16°C 300º 8kt >10km Rain 3.00mm precipitation Clear - KTPF 192035Z AUTO 30008KT 7SM RA CLR 31/16 A3003 RMK AO2
VFR 31°C / 16°C 290º 7kt >10km Rain 3.00mm precipitation Clear - KTPF 192015Z AUTO 29007KT 7SM RA CLR 31/16 A3003 RMK AO2
VFR 31°C / 16°C 270º 6kt >10km - Clear - KTPF 191955Z AUTO 27006KT 7SM CLR 31/16 A3003 RMK AO2
VFR 31°C / 17°C 270º 6kt >10km Rain 3.00mm precipitation Clear - KTPF 191935Z AUTO 27006KT 10SM RA CLR 31/17 A3004 RMK AO2
VFR 31°C / 16°C 260º 7kt >10km Rain 3.00mm precipitation Clear - KTPF 191915Z AUTO 26007KT 7SM RA CLR 31/16 A3004 RMK AO2
VFR 31°C / 16°C 250º 6kt >10km - Clear - KTPF 191855Z AUTO 25006KT 7SM CLR 31/16 A3005 RMK AO2
VFR 31°C / 15°C 230º 5kt >10km - Clear - KTPF 191835Z AUTO 23005KT 10SM CLR 31/15 A3006 RMK AO2
VFR 31°C / 17°C 240º 5kt >10km - Clear - KTPF 191815Z AUTO 24005KT 10SM CLR 31/17 A3007 RMK AO2
VFR 30°C / 16°C 210º 6kt >10km - Clear - KTPF 191755Z AUTO 21006KT 10SM CLR 30/16 A3007 RMK AO2
VFR 30°C / 17°C 200º 8kt >10km - Clear - KTPF 191735Z AUTO 20008KT 10SM CLR 30/17 A3007 RMK AO2
VFR 30°C / 16°C 220º 5kt >10km - Clear - KTPF 191715Z AUTO 22005KT 10SM CLR 30/16 A3008 RMK AO2
VFR 30°C / 16°C 200º 6kt >10km - Clear - KTPF 191655Z AUTO 20006KT 10SM CLR 30/16 A3009 RMK AO2
VFR 29°C / 16°C 200º 7kt >10km - Clear - KTPF 191635Z AUTO 20007KT 10SM CLR 29/16 A3009 RMK AO2

MVFR

25°C / 17°C

[أكثر]
رياح 310º 4kt
مجال رؤية 8000m
حالة الطقس Haze
غيوم Clear
الضغط
تغيير -
خام KTPF 200015Z AUTO 31004KT 5SM HZ CLR 25/17 A3005 RMK AO2

VFR

26°C / 16°C

[أكثر]
رياح 300º 5kt
مجال رؤية >10km
حالة الطقس -
غيوم Clear
الضغط
تغيير -
خام KTPF 192355Z AUTO 30005KT 7SM CLR 26/16 A3005 RMK AO2

VFR

26°C / 16°C

[أكثر]
رياح 300º 6kt
مجال رؤية >10km
حالة الطقس -
غيوم Clear
الضغط
تغيير -
خام KTPF 192335Z AUTO 30006KT 7SM CLR 26/16 A3004 RMK AO2

VFR

27°C / 16°C

[أكثر]
رياح 310º 6kt
مجال رؤية >10km
حالة الطقس Light Rain 1.00mm precipitation
غيوم Clear
الضغط
تغيير -
خام KTPF 192315Z AUTO 31006KT 7SM -RA CLR 27/16 A3004 RMK AO2

VFR

27°C / 16°C

[أكثر]
رياح 300º 7kt
مجال رؤية >10km
حالة الطقس Rain 3.00mm precipitation
غيوم Clear
الضغط
تغيير -
خام KTPF 192255Z AUTO 30007KT 7SM RA CLR 27/16 A3004 RMK AO2

VFR

28°C / 16°C

[أكثر]
رياح 290º 8kt
مجال رؤية >10km
حالة الطقس Rain 3.00mm precipitation
غيوم Clear
الضغط
تغيير -
خام KTPF 192235Z AUTO 29008KT 10SM RA CLR 28/16 A3004 RMK AO2

VFR

28°C / 16°C

[أكثر]
رياح 300º 7kt Gust 15kt
مجال رؤية >10km
حالة الطقس Rain 3.00mm precipitation
غيوم Clear
الضغط
تغيير -
خام KTPF 192215Z AUTO 30007G15KT 7SM RA CLR 28/16 A3004 RMK AO2

VFR

28°C / 16°C

[أكثر]
رياح 290º 11kt Gust 17kt
مجال رؤية >10km
حالة الطقس Rain 3.00mm precipitation
غيوم Clear
الضغط
تغيير -
خام KTPF 192155Z AUTO 29011G17KT 7SM RA CLR 28/16 A3004 RMK AO2

VFR

29°C / 16°C

[أكثر]
رياح 290º 8kt Gust 14kt
مجال رؤية >10km
حالة الطقس Rain 3.00mm precipitation
غيوم Clear
الضغط
تغيير -
خام KTPF 192135Z AUTO 29008G14KT 7SM RA CLR 29/16 A3004 RMK AO2

VFR

30°C / 16°C

[أكثر]
رياح 290º 9kt
مجال رؤية >10km
حالة الطقس Rain 3.00mm precipitation
غيوم Clear
الضغط
تغيير -
خام KTPF 192115Z AUTO 29009KT 7SM RA CLR 30/16 A3003 RMK AO2

VFR

30°C / 16°C

[أكثر]
رياح 290º variable 255º to 325º 7kt
مجال رؤية >10km
حالة الطقس Rain 3.00mm precipitation
غيوم Clear
الضغط
تغيير -
خام KTPF 192055Z AUTO 29007KT 255V325 7SM RA CLR 30/16 A3003 RMK AO2

VFR

31°C / 16°C

[أكثر]
رياح 300º 8kt
مجال رؤية >10km
حالة الطقس Rain 3.00mm precipitation
غيوم Clear
الضغط
تغيير -
خام KTPF 192035Z AUTO 30008KT 7SM RA CLR 31/16 A3003 RMK AO2

VFR

31°C / 16°C

[أكثر]
رياح 290º 7kt
مجال رؤية >10km
حالة الطقس Rain 3.00mm precipitation
غيوم Clear
الضغط
تغيير -
خام KTPF 192015Z AUTO 29007KT 7SM RA CLR 31/16 A3003 RMK AO2

VFR

31°C / 16°C

[أكثر]
رياح 270º 6kt
مجال رؤية >10km
حالة الطقس -
غيوم Clear
الضغط
تغيير -
خام KTPF 191955Z AUTO 27006KT 7SM CLR 31/16 A3003 RMK AO2

VFR

31°C / 17°C

[أكثر]
رياح 270º 6kt
مجال رؤية >10km
حالة الطقس Rain 3.00mm precipitation
غيوم Clear
الضغط
تغيير -
خام KTPF 191935Z AUTO 27006KT 10SM RA CLR 31/17 A3004 RMK AO2

VFR

31°C / 16°C

[أكثر]
رياح 260º 7kt
مجال رؤية >10km
حالة الطقس Rain 3.00mm precipitation
غيوم Clear
الضغط
تغيير -
خام KTPF 191915Z AUTO 26007KT 7SM RA CLR 31/16 A3004 RMK AO2

VFR

31°C / 16°C

[أكثر]
رياح 250º 6kt
مجال رؤية >10km
حالة الطقس -
غيوم Clear
الضغط
تغيير -
خام KTPF 191855Z AUTO 25006KT 7SM CLR 31/16 A3005 RMK AO2

VFR

31°C / 15°C

[أكثر]
رياح 230º 5kt
مجال رؤية >10km
حالة الطقس -
غيوم Clear
الضغط
تغيير -
خام KTPF 191835Z AUTO 23005KT 10SM CLR 31/15 A3006 RMK AO2

VFR

31°C / 17°C

[أكثر]
رياح 240º 5kt
مجال رؤية >10km
حالة الطقس -
غيوم Clear
الضغط
تغيير -
خام KTPF 191815Z AUTO 24005KT 10SM CLR 31/17 A3007 RMK AO2

VFR

30°C / 16°C

[أكثر]
رياح 210º 6kt
مجال رؤية >10km
حالة الطقس -
غيوم Clear
الضغط
تغيير -
خام KTPF 191755Z AUTO 21006KT 10SM CLR 30/16 A3007 RMK AO2

VFR

30°C / 17°C

[أكثر]
رياح 200º 8kt
مجال رؤية >10km
حالة الطقس -
غيوم Clear
الضغط
تغيير -
خام KTPF 191735Z AUTO 20008KT 10SM CLR 30/17 A3007 RMK AO2

VFR

30°C / 16°C

[أكثر]
رياح 220º 5kt
مجال رؤية >10km
حالة الطقس -
غيوم Clear
الضغط
تغيير -
خام KTPF 191715Z AUTO 22005KT 10SM CLR 30/16 A3008 RMK AO2

VFR

30°C / 16°C

[أكثر]
رياح 200º 6kt
مجال رؤية >10km
حالة الطقس -
غيوم Clear
الضغط
تغيير -
خام KTPF 191655Z AUTO 20006KT 10SM CLR 30/16 A3009 RMK AO2

VFR

29°C / 16°C

[أكثر]
رياح 200º 7kt
مجال رؤية >10km
حالة الطقس -
غيوم Clear
الضغط
تغيير -
خام KTPF 191635Z AUTO 20007KT 10SM CLR 29/16 A3009 RMK AO2

rainNOW: هطول أمطار الآن فيتامبا والمناطق المحيطة (نصف قطر 25 كم)

0.0 ميليمتر
0.0 ميليمتر
0.0 ميليمتر
0.0 ميليمتر
0.0 ميليمتر
0.0 ميليمتر
0.0 ميليمتر
0.0 ميليمتر
0.0 ميليمتر
0.0 ميليمتر
0.0 ميليمتر
0.0 ميليمتر

رادار وهطول الأمطار التنبؤ الآني لتامبا

رذاذ
ضوء
معتدل
ثقيل
ثقيل جدا
وابل

مؤشر المكان يشير الى تامبا. تُظهر هذه الرسوم المتحركة رادار هطول الأمطار للنطاق الزمني المحدد ، بالإضافة إلى توقعات ٪ 1 $ dh . تشير الصلبان البرتقالية إلى البرق. البيانات مقدمة من nowcast.de (متوفرة في الولايات المتحدة الأمريكية وأوروبا وأستراليا). رذاذ أو تساقط ثلوج خفيف قد يكون غير مرئي للرادار. كثافة هطول الأمطار لها رموز لونية تتراوح من الفيروز إلى الأحمر.

صور الأقمار الصناعية الملتقطة حالياً لتامبا, الولايات المتحدة الأمريكية

المؤشر يدل على موقع تامبا. [أكثر]

تجمع صورة الأقمار الصناعية في الوقت الفعلي بين الضوء المرئي أثناء النهار والأشعة تحت الحمراء أثناء الليل. لا تبدو الصورة مظلمة ليلاً، لأن الأشعة تحت الحمراء يمكنها الكشف عن الاختلافات في درجة الحرارة. لسوء الحظ ، يصعب التمييز بين السحب المنخفضة والضباب ودرجات حرارة الأرض ، وبالتالي يمكن أن تكون الصور غير مرئية تقريبًا أثناء الليل. يتم تحديث صور الأقمار الصناعية Meteosat الخاصة بأوروبا في الوقت الفعلي كل 5 دقائق، بينما يتم تحديث صور GOES-16 / GOES-17 (أمريكا الشمالية والجنوبية) و هيماواري (آسيا) كل 10 دقائق.

يقدر هطول الأمطار من الرادار والأقمار الصناعية. تقديرات هطول الأمطار من الأقمار الصناعية أقل دقة في الليل منها أثناء النهار.

© 2024 meteoblue, NOAA Satellites GOES-16 and EUMETSAT. بيانات البرق مقدمة من nowcast.

Could not load TAF data: FEEDPACKAGE_TAF: could not Find TAF for station: KTPF
العودة الى الأعلى
×
مرحبًا ،
يبدو أنك تستخدم مانع الإعلانات.

يُعد الإعلان أمرًا ضروريًا للحفاظ على موقعنا المجاني بتفاصيل ودقة فريدة.

يُرجى إضافة www.meteoblue.com إلى القائمة البيضاء في أداة منع الإعلانات أو التفكير في شراء أحد منتجاتنا:

لديك اشتراك بالفعل؟
ثم يرجى تسجيل الدخول .